sensor_id;sensor_type;location;lat;lon;timestamp;temperature;humidity
32215;DHT22;18708;53.124;23.190;2023-03-15T00:00:04;7.30;99.90
32215;DHT22;18708;53.124;23.190;2023-03-15T00:02:31;7.20;99.90
32215;DHT22;18708;53.124;23.190;2023-03-15T00:04:57;7.20;99.90
32215;DHT22;18708;53.124;23.190;2023-03-15T00:07:22;7.20;99.90
32215;DHT22;18708;53.124;23.190;2023-03-15T00:10:10;7.10;99.90
32215;DHT22;18708;53.124;23.190;2023-03-15T00:12:55;7.10;99.90
32215;DHT22;18708;53.124;23.190;2023-03-15T00:15:21;7.10;99.90
32215;DHT22;18708;53.124;23.190;2023-03-15T00:17:46;7.00;99.90
32215;DHT22;18708;53.124;23.190;2023-03-15T00:20:13;7.10;99.90
32215;DHT22;18708;53.124;23.190;2023-03-15T00:22:43;7.00;99.90
32215;DHT22;18708;53.124;23.190;2023-03-15T00:25:09;6.90;99.90
32215;DHT22;18708;53.124;23.190;2023-03-15T00:27:35;6.90;99.90
32215;DHT22;18708;53.124;23.190;2023-03-15T00:30:01;6.90;99.90
32215;DHT22;18708;53.124;23.190;2023-03-15T00:32:28;6.90;99.90
32215;DHT22;18708;53.124;23.190;2023-03-15T00:34:56;6.90;99.90
32215;DHT22;18708;53.124;23.190;2023-03-15T00:37:21;6.90;99.90
32215;DHT22;18708;53.124;23.190;2023-03-15T00:40:10;6.90;99.90
32215;DHT22;18708;53.124;23.190;2023-03-15T00:42:37;6.80;99.90
32215;DHT22;18708;53.124;23.190;2023-03-15T00:45:03;6.70;99.90
32215;DHT22;18708;53.124;23.190;2023-03-15T00:47:29;6.70;99.90
32215;DHT22;18708;53.124;23.190;2023-03-15T00:49:55;6.80;99.90
32215;DHT22;18708;53.124;23.190;2023-03-15T00:52:20;6.80;99.90
32215;DHT22;18708;53.124;23.190;2023-03-15T00:54:54;6.80;99.90
32215;DHT22;18708;53.124;23.190;2023-03-15T00:57:19;6.70;99.90
32215;DHT22;18708;53.124;23.190;2023-03-15T00:59:45;6.70;99.90
32215;DHT22;18708;53.124;23.190;2023-03-15T01:02:11;6.60;99.90
32215;DHT22;18708;53.124;23.190;2023-03-15T01:04:37;6.60;99.90
32215;DHT22;18708;53.124;23.190;2023-03-15T01:07:04;6.70;99.90
32215;DHT22;18708;53.124;23.190;2023-03-15T01:09:30;6.70;99.90
32215;DHT22;18708;53.124;23.190;2023-03-15T01:11:57;6.70;99.90
32215;DHT22;18708;53.124;23.190;2023-03-15T01:14:23;6.70;99.90
32215;DHT22;18708;53.124;23.190;2023-03-15T01:16:49;6.70;99.90
32215;DHT22;18708;53.124;23.190;2023-03-15T01:19:17;6.70;99.90
32215;DHT22;18708;53.124;23.190;2023-03-15T01:21:43;6.70;99.90
32215;DHT22;18708;53.124;23.190;2023-03-15T01:24:13;6.70;99.90
32215;DHT22;18708;53.124;23.190;2023-03-15T01:26:39;6.70;99.90
32215;DHT22;18708;53.124;23.190;2023-03-15T01:29:11;6.70;99.90
32215;DHT22;18708;53.124;23.190;2023-03-15T01:31:40;6.70;99.90
32215;DHT22;18708;53.124;23.190;2023-03-15T01:34:23;6.70;99.90
32215;DHT22;18708;53.124;23.190;2023-03-15T01:36:50;6.70;99.90
32215;DHT22;18708;53.124;23.190;2023-03-15T01:39:19;6.80;99.90
32215;DHT22;18708;53.124;23.190;2023-03-15T01:41:45;6.80;99.90
32215;DHT22;18708;53.124;23.190;2023-03-15T01:44:15;6.80;99.90
32215;DHT22;18708;53.124;23.190;2023-03-15T01:46:41;6.80;99.90
32215;DHT22;18708;53.124;23.190;2023-03-15T01:49:13;6.90;99.90
32215;DHT22;18708;53.124;23.190;2023-03-15T01:51:46;6.90;99.90
32215;DHT22;18708;53.124;23.190;2023-03-15T01:54:31;6.90;99.90
32215;DHT22;18708;53.124;23.190;2023-03-15T01:57:23;7.00;99.90
32215;DHT22;18708;53.124;23.190;2023-03-15T02:00:05;7.00;99.90
32215;DHT22;18708;53.124;23.190;2023-03-15T02:02:35;7.00;99.90
32215;DHT22;18708;53.124;23.190;2023-03-15T02:05:06;7.10;99.90
32215;DHT22;18708;53.124;23.190;2023-03-15T02:07:34;7.10;99.90
32215;DHT22;18708;53.124;23.190;2023-03-15T02:10:03;7.10;99.90
32215;DHT22;18708;53.124;23.190;2023-03-15T02:12:32;7.20;99.90
32215;DHT22;18708;53.124;23.190;2023-03-15T02:15:02;7.20;99.90
32215;DHT22;18708;53.124;23.190;2023-03-15T02:17:39;7.20;99.90
32215;DHT22;18708;53.124;23.190;2023-03-15T02:20:27;7.30;99.90
32215;DHT22;18708;53.124;23.190;2023-03-15T02:23:01;7.30;99.90
32215;DHT22;18708;53.124;23.190;2023-03-15T02:25:42;7.30;99.90
32215;DHT22;18708;53.124;23.190;2023-03-15T02:28:12;7.40;99.90
32215;DHT22;18708;53.124;23.190;2023-03-15T02:30:39;7.40;99.90
32215;DHT22;18708;53.124;23.190;2023-03-15T02:33:30;7.40;99.90
32215;DHT22;18708;53.124;23.190;2023-03-15T02:35:54;7.50;99.90
32215;DHT22;18708;53.124;23.190;2023-03-15T02:38:21;7.50;99.90
32215;DHT22;18708;53.124;23.190;2023-03-15T02:40:47;7.50;99.90
32215;DHT22;18708;53.124;23.190;2023-03-15T02:43:17;7.50;99.90
32215;DHT22;18708;53.124;23.190;2023-03-15T02:45:45;7.60;99.90
32215;DHT22;18708;53.124;23.190;2023-03-15T02:48:14;7.60;99.90
32215;DHT22;18708;53.124;23.190;2023-03-15T02:50:40;7.60;99.90
32215;DHT22;18708;53.124;23.190;2023-03-15T02:53:06;7.70;99.90
32215;DHT22;18708;53.124;23.190;2023-03-15T02:55:32;7.70;99.90
32215;DHT22;18708;53.124;23.190;2023-03-15T02:57:59;7.60;99.90
32215;DHT22;18708;53.124;23.190;2023-03-15T03:00:25;7.70;97.20
32215;DHT22;18708;53.124;23.190;2023-03-15T03:02:51;7.70;1.00
32215;DHT22;18708;53.124;23.190;2023-03-15T03:05:17;7.60;99.90
32215;DHT22;18708;53.124;23.190;2023-03-15T03:07:44;7.00;99.90
32215;DHT22;18708;53.124;23.190;2023-03-15T03:10:13;6.60;99.90
32215;DHT22;18708;53.124;23.190;2023-03-15T03:12:40;6.40;1.00
32215;DHT22;18708;53.124;23.190;2023-03-15T03:15:06;6.20;1.00
32215;DHT22;18708;53.124;23.190;2023-03-15T03:17:32;6.00;1.00
32215;DHT22;18708;53.124;23.190;2023-03-15T03:20:06;5.80;1.00
32215;DHT22;18708;53.124;23.190;2023-03-15T03:22:33;5.60;1.00
32215;DHT22;18708;53.124;23.190;2023-03-15T03:24:59;5.60;1.00
32215;DHT22;18708;53.124;23.190;2023-03-15T03:27:24;5.40;1.00
32215;DHT22;18708;53.124;23.190;2023-03-15T03:29:50;5.30;1.00
32215;DHT22;18708;53.124;23.190;2023-03-15T03:32:16;5.10;1.00
32215;DHT22;18708;53.124;23.190;2023-03-15T03:34:41;5.00;1.00
32215;DHT22;18708;53.124;23.190;2023-03-15T03:37:19;5.00;1.00
32215;DHT22;18708;53.124;23.190;2023-03-15T03:39:45;4.80;1.00
32215;DHT22;18708;53.124;23.190;2023-03-15T03:42:11;4.80;1.00
32215;DHT22;18708;53.124;23.190;2023-03-15T03:44:37;4.70;1.00
32215;DHT22;18708;53.124;23.190;2023-03-15T03:47:03;4.60;99.90
32215;DHT22;18708;53.124;23.190;2023-03-15T03:49:29;4.40;99.90
32215;DHT22;18708;53.124;23.190;2023-03-15T03:51:54;4.30;99.90
32215;DHT22;18708;53.124;23.190;2023-03-15T03:54:20;4.30;99.90
32215;DHT22;18708;53.124;23.190;2023-03-15T03:56:47;4.20;99.90
32215;DHT22;18708;53.124;23.190;2023-03-15T03:59:13;4.20;99.90
32215;DHT22;18708;53.124;23.190;2023-03-15T04:01:38;4.10;51.00
32215;DHT22;18708;53.124;23.190;2023-03-15T04:04:04;4.00;81.20
32215;DHT22;18708;53.124;23.190;2023-03-15T04:06:32;4.00;99.90
32215;DHT22;18708;53.124;23.190;2023-03-15T04:08:57;3.90;99.90
32215;DHT22;18708;53.124;23.190;2023-03-15T04:11:23;3.80;18.50
32215;DHT22;18708;53.124;23.190;2023-03-15T04:13:51;3.70;76.10
32215;DHT22;18708;53.124;23.190;2023-03-15T04:16:18;3.70;99.90
32215;DHT22;18708;53.124;23.190;2023-03-15T04:18:44;3.70;1.00
32215;DHT22;18708;53.124;23.190;2023-03-15T04:21:09;3.60;1.00
32215;DHT22;18708;53.124;23.190;2023-03-15T04:23:36;3.60;1.00
32215;DHT22;18708;53.124;23.190;2023-03-15T04:26:02;3.60;1.00
32215;DHT22;18708;53.124;23.190;2023-03-15T04:28:28;3.50;66.20
32215;DHT22;18708;53.124;23.190;2023-03-15T04:30:54;3.50;99.90
32215;DHT22;18708;53.124;23.190;2023-03-15T04:33:24;3.50;99.90
32215;DHT22;18708;53.124;23.190;2023-03-15T04:35:49;3.50;99.90
32215;DHT22;18708;53.124;23.190;2023-03-15T04:38:17;3.50;99.90
32215;DHT22;18708;53.124;23.190;2023-03-15T04:40:43;3.50;99.90
32215;DHT22;18708;53.124;23.190;2023-03-15T04:43:09;3.50;99.90
32215;DHT22;18708;53.124;23.190;2023-03-15T04:45:35;3.40;99.90
32215;DHT22;18708;53.124;23.190;2023-03-15T04:48:01;3.40;99.90
32215;DHT22;18708;53.124;23.190;2023-03-15T04:50:28;3.40;99.90
32215;DHT22;18708;53.124;23.190;2023-03-15T04:52:54;3.40;1.00
32215;DHT22;18708;53.124;23.190;2023-03-15T04:55:20;3.40;99.90
32215;DHT22;18708;53.124;23.190;2023-03-15T04:57:45;3.40;99.90
32215;DHT22;18708;53.124;23.190;2023-03-15T05:00:12;3.40;99.90
32215;DHT22;18708;53.124;23.190;2023-03-15T05:02:39;3.30;99.90
32215;DHT22;18708;53.124;23.190;2023-03-15T05:05:10;3.20;99.90
32215;DHT22;18708;53.124;23.190;2023-03-15T05:07:36;3.20;1.00
32215;DHT22;18708;53.124;23.190;2023-03-15T05:10:03;3.10;1.00
32215;DHT22;18708;53.124;23.190;2023-03-15T05:12:30;3.10;1.00
32215;DHT22;18708;53.124;23.190;2023-03-15T05:14:56;3.00;1.00
32215;DHT22;18708;53.124;23.190;2023-03-15T05:17:22;3.00;1.00
32215;DHT22;18708;53.124;23.190;2023-03-15T05:19:50;3.00;1.00
32215;DHT22;18708;53.124;23.190;2023-03-15T05:22:16;3.00;1.00
32215;DHT22;18708;53.124;23.190;2023-03-15T05:24:43;2.90;1.00
32215;DHT22;18708;53.124;23.190;2023-03-15T05:27:09;2.90;1.00
32215;DHT22;18708;53.124;23.190;2023-03-15T05:29:36;2.90;1.00
32215;DHT22;18708;53.124;23.190;2023-03-15T05:32:02;2.90;1.00
32215;DHT22;18708;53.124;23.190;2023-03-15T05:34:29;2.90;1.00
32215;DHT22;18708;53.124;23.190;2023-03-15T05:36:59;2.90;1.00
32215;DHT22;18708;53.124;23.190;2023-03-15T05:39:25;2.90;1.00
32215;DHT22;18708;53.124;23.190;2023-03-15T05:41:51;2.90;1.00
32215;DHT22;18708;53.124;23.190;2023-03-15T05:44:17;2.90;1.00
32215;DHT22;18708;53.124;23.190;2023-03-15T05:46:43;2.90;1.00
32215;DHT22;18708;53.124;23.190;2023-03-15T05:49:08;2.80;1.00
32215;DHT22;18708;53.124;23.190;2023-03-15T05:51:34;2.80;1.00
32215;DHT22;18708;53.124;23.190;2023-03-15T05:54:00;2.90;1.00
32215;DHT22;18708;53.124;23.190;2023-03-15T05:56:25;2.80;1.00
32215;DHT22;18708;53.124;23.190;2023-03-15T05:58:51;2.80;1.00
32215;DHT22;18708;53.124;23.190;2023-03-15T06:01:17;2.80;1.00
32215;DHT22;18708;53.124;23.190;2023-03-15T06:03:42;2.80;1.00
32215;DHT22;18708;53.124;23.190;2023-03-15T06:06:08;2.70;1.00
32215;DHT22;18708;53.124;23.190;2023-03-15T06:08:34;2.70;1.00
32215;DHT22;18708;53.124;23.190;2023-03-15T06:10:59;2.70;1.00
32215;DHT22;18708;53.124;23.190;2023-03-15T06:13:25;2.80;1.00
32215;DHT22;18708;53.124;23.190;2023-03-15T06:15:51;2.80;1.00
32215;DHT22;18708;53.124;23.190;2023-03-15T06:18:17;2.80;1.00
32215;DHT22;18708;53.124;23.190;2023-03-15T06:20:42;2.90;1.00
32215;DHT22;18708;53.124;23.190;2023-03-15T06:23:08;2.90;1.00
32215;DHT22;18708;53.124;23.190;2023-03-15T06:25:34;2.90;1.00
32215;DHT22;18708;53.124;23.190;2023-03-15T06:28:00;2.90;1.00
32215;DHT22;18708;53.124;23.190;2023-03-15T06:30:26;3.00;1.00
32215;DHT22;18708;53.124;23.190;2023-03-15T06:32:53;3.00;1.00
32215;DHT22;18708;53.124;23.190;2023-03-15T06:35:19;3.00;1.00
32215;DHT22;18708;53.124;23.190;2023-03-15T06:37:45;3.00;1.00
32215;DHT22;18708;53.124;23.190;2023-03-15T06:40:11;3.00;1.00
32215;DHT22;18708;53.124;23.190;2023-03-15T06:42:38;3.10;1.00
32215;DHT22;18708;53.124;23.190;2023-03-15T06:45:07;3.10;1.00
32215;DHT22;18708;53.124;23.190;2023-03-15T06:47:33;3.10;1.00
32215;DHT22;18708;53.124;23.190;2023-03-15T06:49:59;3.10;1.00
32215;DHT22;18708;53.124;23.190;2023-03-15T06:52:24;3.20;1.00
32215;DHT22;18708;53.124;23.190;2023-03-15T06:54:50;3.20;1.00
32215;DHT22;18708;53.124;23.190;2023-03-15T06:57:16;3.30;1.00
32215;DHT22;18708;53.124;23.190;2023-03-15T06:59:41;3.40;1.00
32215;DHT22;18708;53.124;23.190;2023-03-15T07:02:15;3.40;1.00
32215;DHT22;18708;53.124;23.190;2023-03-15T07:04:41;3.40;1.00
32215;DHT22;18708;53.124;23.190;2023-03-15T07:07:12;3.60;1.00
32215;DHT22;18708;53.124;23.190;2023-03-15T07:09:38;3.60;1.00
32215;DHT22;18708;53.124;23.190;2023-03-15T07:12:04;3.70;1.00
32215;DHT22;18708;53.124;23.190;2023-03-15T07:14:30;3.70;1.00
32215;DHT22;18708;53.124;23.190;2023-03-15T07:16:57;3.70;99.90
32215;DHT22;18708;53.124;23.190;2023-03-15T07:19:25;3.60;99.90
32215;DHT22;18708;53.124;23.190;2023-03-15T07:21:51;3.70;99.90
32215;DHT22;18708;53.124;23.190;2023-03-15T07:24:16;3.70;99.90
32215;DHT22;18708;53.124;23.190;2023-03-15T07:26:42;3.70;99.90
32215;DHT22;18708;53.124;23.190;2023-03-15T07:29:08;3.70;92.20
32215;DHT22;18708;53.124;23.190;2023-03-15T07:31:34;3.80;1.00
32215;DHT22;18708;53.124;23.190;2023-03-15T07:33:59;3.80;1.00
32215;DHT22;18708;53.124;23.190;2023-03-15T07:36:25;3.80;1.00
32215;DHT22;18708;53.124;23.190;2023-03-15T07:38:51;3.80;1.00
32215;DHT22;18708;53.124;23.190;2023-03-15T07:41:16;3.80;1.00
32215;DHT22;18708;53.124;23.190;2023-03-15T07:43:42;3.80;1.00
32215;DHT22;18708;53.124;23.190;2023-03-15T07:46:08;3.80;1.00
32215;DHT22;18708;53.124;23.190;2023-03-15T07:48:33;3.90;1.00
32215;DHT22;18708;53.124;23.190;2023-03-15T07:50:59;3.90;1.00
32215;DHT22;18708;53.124;23.190;2023-03-15T07:53:25;3.90;1.00
32215;DHT22;18708;53.124;23.190;2023-03-15T07:55:51;4.00;1.00
32215;DHT22;18708;53.124;23.190;2023-03-15T07:58:19;4.10;99.90
32215;DHT22;18708;53.124;23.190;2023-03-15T08:00:47;4.10;99.90
32215;DHT22;18708;53.124;23.190;2023-03-15T08:03:13;4.10;99.90
32215;DHT22;18708;53.124;23.190;2023-03-15T08:05:38;4.00;99.90
32215;DHT22;18708;53.124;23.190;2023-03-15T08:08:06;4.00;99.90
32215;DHT22;18708;53.124;23.190;2023-03-15T08:10:31;4.10;99.90
32215;DHT22;18708;53.124;23.190;2023-03-15T08:12:57;4.20;80.30
32215;DHT22;18708;53.124;23.190;2023-03-15T08:15:23;4.20;1.00
32215;DHT22;18708;53.124;23.190;2023-03-15T08:17:48;4.20;1.00
32215;DHT22;18708;53.124;23.190;2023-03-15T08:20:15;4.30;1.00
32215;DHT22;18708;53.124;23.190;2023-03-15T08:22:45;4.40;1.00
32215;DHT22;18708;53.124;23.190;2023-03-15T08:25:12;4.50;1.00
32215;DHT22;18708;53.124;23.190;2023-03-15T08:27:39;4.50;1.00
32215;DHT22;18708;53.124;23.190;2023-03-15T08:30:08;4.70;1.00
32215;DHT22;18708;53.124;23.190;2023-03-15T08:32:37;4.70;1.00
32215;DHT22;18708;53.124;23.190;2023-03-15T08:35:03;4.70;99.90
32215;DHT22;18708;53.124;23.190;2023-03-15T08:37:29;4.60;99.90
32215;DHT22;18708;53.124;23.190;2023-03-15T08:39:55;4.70;99.90
32215;DHT22;18708;53.124;23.190;2023-03-15T08:42:26;4.80;99.90
32215;DHT22;18708;53.124;23.190;2023-03-15T08:44:52;4.90;1.00
32215;DHT22;18708;53.124;23.190;2023-03-15T08:47:18;4.90;99.90
32215;DHT22;18708;53.124;23.190;2023-03-15T08:49:43;5.00;99.90
32215;DHT22;18708;53.124;23.190;2023-03-15T08:52:09;5.00;1.00
32215;DHT22;18708;53.124;23.190;2023-03-15T08:54:35;5.00;1.00
32215;DHT22;18708;53.124;23.190;2023-03-15T08:57:01;5.00;1.00
32215;DHT22;18708;53.124;23.190;2023-03-15T08:59:26;5.10;1.00
32215;DHT22;18708;53.124;23.190;2023-03-15T09:01:52;5.30;1.00
32215;DHT22;18708;53.124;23.190;2023-03-15T09:04:18;5.40;1.00
32215;DHT22;18708;53.124;23.190;2023-03-15T09:06:43;5.50;1.00
32215;DHT22;18708;53.124;23.190;2023-03-15T09:09:09;5.60;1.00
32215;DHT22;18708;53.124;23.190;2023-03-15T09:11:35;5.60;1.00
32215;DHT22;18708;53.124;23.190;2023-03-15T09:14:01;5.50;1.00
32215;DHT22;18708;53.124;23.190;2023-03-15T09:16:27;5.60;1.00
32215;DHT22;18708;53.124;23.190;2023-03-15T09:18:53;5.70;1.00
32215;DHT22;18708;53.124;23.190;2023-03-15T09:21:18;5.70;99.90
32215;DHT22;18708;53.124;23.190;2023-03-15T09:23:44;5.90;99.90
32215;DHT22;18708;53.124;23.190;2023-03-15T09:26:09;6.20;99.90
32215;DHT22;18708;53.124;23.190;2023-03-15T09:28:35;6.50;99.90
32215;DHT22;18708;53.124;23.190;2023-03-15T09:31:04;6.40;99.90
32215;DHT22;18708;53.124;23.190;2023-03-15T09:33:30;6.30;99.30
32215;DHT22;18708;53.124;23.190;2023-03-15T09:35:57;6.20;1.00
32215;DHT22;18708;53.124;23.190;2023-03-15T09:38:23;6.20;99.90
32215;DHT22;18708;53.124;23.190;2023-03-15T09:40:50;6.30;1.00
32215;DHT22;18708;53.124;23.190;2023-03-15T09:46:29;6.50;1.00
32215;DHT22;18708;53.124;23.190;2023-03-15T09:51:40;6.40;1.00
32215;DHT22;18708;53.124;23.190;2023-03-15T09:54:17;6.40;1.00
32215;DHT22;18708;53.124;23.190;2023-03-15T09:56:55;6.30;1.00
32215;DHT22;18708;53.124;23.190;2023-03-15T09:59:33;6.20;1.00
32215;DHT22;18708;53.124;23.190;2023-03-15T10:02:02;6.20;1.00
32215;DHT22;18708;53.124;23.190;2023-03-15T10:04:32;6.10;1.00
32215;DHT22;18708;53.124;23.190;2023-03-15T10:07:04;6.20;1.00
32215;DHT22;18708;53.124;23.190;2023-03-15T10:09:32;6.40;1.00
32215;DHT22;18708;53.124;23.190;2023-03-15T10:12:02;6.40;1.00
32215;DHT22;18708;53.124;23.190;2023-03-15T10:20:11;6.60;99.90
32215;DHT22;18708;53.124;23.190;2023-03-15T10:22:58;6.70;99.90
32215;DHT22;18708;53.124;23.190;2023-03-15T10:25:27;6.60;99.90
32215;DHT22;18708;53.124;23.190;2023-03-15T10:30:47;6.70;99.90
32215;DHT22;18708;53.124;23.190;2023-03-15T10:35:44;6.60;99.90
32215;DHT22;18708;53.124;23.190;2023-03-15T10:38:17;6.60;99.90
32215;DHT22;18708;53.124;23.190;2023-03-15T10:40:47;6.50;99.90
32215;DHT22;18708;53.124;23.190;2023-03-15T10:43:39;6.40;99.90
32215;DHT22;18708;53.124;23.190;2023-03-15T10:46:23;6.30;99.90
32215;DHT22;18708;53.124;23.190;2023-03-15T10:49:10;6.30;99.90
32215;DHT22;18708;53.124;23.190;2023-03-15T10:51:47;6.30;99.90
32215;DHT22;18708;53.124;23.190;2023-03-15T10:54:23;6.30;99.90
32215;DHT22;18708;53.124;23.190;2023-03-15T10:57:02;6.30;99.90
32215;DHT22;18708;53.124;23.190;2023-03-15T10:59:31;6.30;99.90
32215;DHT22;18708;53.124;23.190;2023-03-15T11:02:19;6.20;99.90
32215;DHT22;18708;53.124;23.190;2023-03-15T11:04:50;6.20;99.90
32215;DHT22;18708;53.124;23.190;2023-03-15T11:07:24;6.30;99.90
32215;DHT22;18708;53.124;23.190;2023-03-15T11:09:55;6.30;99.90
32215;DHT22;18708;53.124;23.190;2023-03-15T11:12:28;6.30;99.90
32215;DHT22;18708;53.124;23.190;2023-03-15T11:15:11;6.20;99.90
32215;DHT22;18708;53.124;23.190;2023-03-15T11:17:48;6.30;99.90
32215;DHT22;18708;53.124;23.190;2023-03-15T11:22:52;6.40;99.90
32215;DHT22;18708;53.124;23.190;2023-03-15T11:25:22;6.40;99.90
32215;DHT22;18708;53.124;23.190;2023-03-15T11:27:52;6.50;59.70
32215;DHT22;18708;53.124;23.190;2023-03-15T11:30:22;6.60;1.00
32215;DHT22;18708;53.124;23.190;2023-03-15T11:32:49;6.60;1.00
32215;DHT22;18708;53.124;23.190;2023-03-15T11:35:47;6.60;1.00
32215;DHT22;18708;53.124;23.190;2023-03-15T11:38:22;6.80;1.00
32215;DHT22;18708;53.124;23.190;2023-03-15T11:40:53;6.80;1.00
32215;DHT22;18708;53.124;23.190;2023-03-15T11:43:26;6.90;1.00
32215;DHT22;18708;53.124;23.190;2023-03-15T11:46:09;6.90;1.00
32215;DHT22;18708;53.124;23.190;2023-03-15T11:48:47;6.80;1.00
32215;DHT22;18708;53.124;23.190;2023-03-15T11:51:15;6.80;1.00
32215;DHT22;18708;53.124;23.190;2023-03-15T11:54:14;6.90;1.00
32215;DHT22;18708;53.124;23.190;2023-03-15T11:56:46;7.00;1.00
32215;DHT22;18708;53.124;23.190;2023-03-15T12:01:57;7.00;1.00
32215;DHT22;18708;53.124;23.190;2023-03-15T12:06:50;7.20;1.00
32215;DHT22;18708;53.124;23.190;2023-03-15T12:12:04;7.60;1.00
32215;DHT22;18708;53.124;23.190;2023-03-15T12:14:33;7.50;1.00
32215;DHT22;18708;53.124;23.190;2023-03-15T12:20:12;7.40;1.00
32215;DHT22;18708;53.124;23.190;2023-03-15T12:22:53;7.50;1.00
32215;DHT22;18708;53.124;23.190;2023-03-15T12:25:35;7.70;1.00
32215;DHT22;18708;53.124;23.190;2023-03-15T12:28:17;7.60;1.00
32215;DHT22;18708;53.124;23.190;2023-03-15T12:30:44;7.40;1.00
32215;DHT22;18708;53.124;23.190;2023-03-15T12:33:19;7.20;1.00
32215;DHT22;18708;53.124;23.190;2023-03-15T12:35:45;7.20;1.00
32215;DHT22;18708;53.124;23.190;2023-03-15T12:38:20;7.10;1.00
32215;DHT22;18708;53.124;23.190;2023-03-15T12:40:53;7.00;1.00
32215;DHT22;18708;53.124;23.190;2023-03-15T12:43:49;6.90;1.00
32215;DHT22;18708;53.124;23.190;2023-03-15T12:51:44;6.80;1.00
32215;DHT22;18708;53.124;23.190;2023-03-15T12:54:18;6.70;1.00
32215;DHT22;18708;53.124;23.190;2023-03-15T12:56:47;6.70;1.00
32215;DHT22;18708;53.124;23.190;2023-03-15T13:01:44;6.80;1.00
32215;DHT22;18708;53.124;23.190;2023-03-15T13:04:11;7.00;1.00
32215;DHT22;18708;53.124;23.190;2023-03-15T13:06:51;7.00;1.00
32215;DHT22;18708;53.124;23.190;2023-03-15T13:09:42;7.00;1.00
32215;DHT22;18708;53.124;23.190;2023-03-15T13:22:41;6.90;1.00
32215;DHT22;18708;53.124;23.190;2023-03-15T13:25:21;6.90;1.00
32215;DHT22;18708;53.124;23.190;2023-03-15T13:28:01;6.90;1.00
32215;DHT22;18708;53.124;23.190;2023-03-15T13:38:38;6.60;1.00
32215;DHT22;18708;53.124;23.190;2023-03-15T13:41:21;6.40;1.00
32215;DHT22;18708;53.124;23.190;2023-03-15T13:43:48;6.30;1.00
32215;DHT22;18708;53.124;23.190;2023-03-15T13:46:17;6.20;1.00
32215;DHT22;18708;53.124;23.190;2023-03-15T13:48:45;6.20;1.00
32215;DHT22;18708;53.124;23.190;2023-03-15T13:51:26;6.10;1.00
32215;DHT22;18708;53.124;23.190;2023-03-15T13:56:58;6.10;1.00
32215;DHT22;18708;53.124;23.190;2023-03-15T13:59:30;6.20;1.00
32215;DHT22;18708;53.124;23.190;2023-03-15T14:01:57;6.10;1.00
32215;DHT22;18708;53.124;23.190;2023-03-15T14:04:24;6.20;1.00
32215;DHT22;18708;53.124;23.190;2023-03-15T14:07:24;6.20;1.00
32215;DHT22;18708;53.124;23.190;2023-03-15T14:09:47;6.20;1.00
32215;DHT22;18708;53.124;23.190;2023-03-15T14:12:19;6.30;1.00
32215;DHT22;18708;53.124;23.190;2023-03-15T14:14:51;6.30;1.00
32215;DHT22;18708;53.124;23.190;2023-03-15T14:17:28;6.30;1.00
32215;DHT22;18708;53.124;23.190;2023-03-15T14:20:06;6.20;1.00
32215;DHT22;18708;53.124;23.190;2023-03-15T14:22:34;6.20;1.00
32215;DHT22;18708;53.124;23.190;2023-03-15T14:25:02;6.20;1.00
32215;DHT22;18708;53.124;23.190;2023-03-15T14:27:28;6.10;1.00
32215;DHT22;18708;53.124;23.190;2023-03-15T14:30:21;6.10;1.00
32215;DHT22;18708;53.124;23.190;2023-03-15T14:32:55;6.00;1.00
32215;DHT22;18708;53.124;23.190;2023-03-15T14:35:30;5.90;1.00
32215;DHT22;18708;53.124;23.190;2023-03-15T14:38:22;5.90;1.00
32215;DHT22;18708;53.124;23.190;2023-03-15T14:40:48;5.90;1.00
32215;DHT22;18708;53.124;23.190;2023-03-15T14:43:15;5.90;1.00
32215;DHT22;18708;53.124;23.190;2023-03-15T14:45:43;5.90;1.00
32215;DHT22;18708;53.124;23.190;2023-03-15T14:48:36;5.90;1.00
32215;DHT22;18708;53.124;23.190;2023-03-15T14:51:02;5.90;1.00
32215;DHT22;18708;53.124;23.190;2023-03-15T14:53:33;5.90;1.00
32215;DHT22;18708;53.124;23.190;2023-03-15T14:56:00;5.80;1.00
32215;DHT22;18708;53.124;23.190;2023-03-15T14:58:25;5.60;1.00
32215;DHT22;18708;53.124;23.190;2023-03-15T15:00:52;5.50;1.00
32215;DHT22;18708;53.124;23.190;2023-03-15T15:03:37;5.50;1.00
32215;DHT22;18708;53.124;23.190;2023-03-15T15:06:06;5.50;1.00
32215;DHT22;18708;53.124;23.190;2023-03-15T15:08:32;5.50;1.00
32215;DHT22;18708;53.124;23.190;2023-03-15T15:10:58;5.50;1.00
32215;DHT22;18708;53.124;23.190;2023-03-15T15:13:26;5.50;1.00
32215;DHT22;18708;53.124;23.190;2023-03-15T15:15:53;5.50;1.00
32215;DHT22;18708;53.124;23.190;2023-03-15T15:18:20;5.50;1.00
32215;DHT22;18708;53.124;23.190;2023-03-15T15:20:46;5.50;1.00
32215;DHT22;18708;53.124;23.190;2023-03-15T15:23:20;5.50;1.00
32215;DHT22;18708;53.124;23.190;2023-03-15T15:25:46;5.50;1.00
32215;DHT22;18708;53.124;23.190;2023-03-15T15:28:13;5.40;1.00
32215;DHT22;18708;53.124;23.190;2023-03-15T15:30:39;5.40;1.00
32215;DHT22;18708;53.124;23.190;2023-03-15T15:33:05;5.30;1.00
32215;DHT22;18708;53.124;23.190;2023-03-15T15:35:30;5.30;1.00
32215;DHT22;18708;53.124;23.190;2023-03-15T15:37:56;5.30;1.00
32215;DHT22;18708;53.124;23.190;2023-03-15T15:40:29;5.30;1.00
32215;DHT22;18708;53.124;23.190;2023-03-15T15:42:55;5.20;1.00
32215;DHT22;18708;53.124;23.190;2023-03-15T15:45:22;5.30;1.00
32215;DHT22;18708;53.124;23.190;2023-03-15T15:47:49;5.30;1.00
32215;DHT22;18708;53.124;23.190;2023-03-15T15:50:17;5.30;1.00
32215;DHT22;18708;53.124;23.190;2023-03-15T15:52:46;5.30;1.00
32215;DHT22;18708;53.124;23.190;2023-03-15T15:55:17;5.20;1.00
32215;DHT22;18708;53.124;23.190;2023-03-15T15:57:47;5.20;1.00
32215;DHT22;18708;53.124;23.190;2023-03-15T16:00:19;5.30;1.00
32215;DHT22;18708;53.124;23.190;2023-03-15T16:02:46;5.20;1.00
32215;DHT22;18708;53.124;23.190;2023-03-15T16:05:12;5.10;1.00
32215;DHT22;18708;53.124;23.190;2023-03-15T16:07:39;5.10;1.00
32215;DHT22;18708;53.124;23.190;2023-03-15T16:10:06;5.10;1.00
32215;DHT22;18708;53.124;23.190;2023-03-15T16:12:33;5.10;1.00
32215;DHT22;18708;53.124;23.190;2023-03-15T16:14:59;5.10;1.00
32215;DHT22;18708;53.124;23.190;2023-03-15T16:17:25;5.10;1.00
32215;DHT22;18708;53.124;23.190;2023-03-15T16:19:52;5.10;1.00
32215;DHT22;18708;53.124;23.190;2023-03-15T16:22:20;5.20;1.00
32215;DHT22;18708;53.124;23.190;2023-03-15T16:24:52;5.10;1.00
32215;DHT22;18708;53.124;23.190;2023-03-15T16:27:22;5.20;1.00
32215;DHT22;18708;53.124;23.190;2023-03-15T16:29:49;5.10;1.00
32215;DHT22;18708;53.124;23.190;2023-03-15T16:32:22;5.10;1.00
32215;DHT22;18708;53.124;23.190;2023-03-15T16:34:51;5.00;1.00
32215;DHT22;18708;53.124;23.190;2023-03-15T16:37:22;5.00;1.00
32215;DHT22;18708;53.124;23.190;2023-03-15T16:39:49;4.90;1.00
32215;DHT22;18708;53.124;23.190;2023-03-15T16:42:17;4.80;1.00
32215;DHT22;18708;53.124;23.190;2023-03-15T16:44:44;4.80;1.00
32215;DHT22;18708;53.124;23.190;2023-03-15T16:47:10;4.90;1.00
32215;DHT22;18708;53.124;23.190;2023-03-15T16:49:35;4.80;1.00
32215;DHT22;18708;53.124;23.190;2023-03-15T16:52:02;4.80;1.00